Time;durP1;ratioP1;P1;durP2;ratioP2;P2;SDS_P1;SDS_P2;PMS_P1;PMS_P2;Temp;Humidity;BMP_temperature;BMP_pressure;BME280_temperature;BME280_humidity;BME280_pressure;Samples;Min_cycle;Max_cycle;Signal;HPM_P1;HPM_P2
2020/12/17 00:00:29;;;;;;;3.28;1.30;;;17.70;51.50;;;;;;5091101;28;20164;-80
2020/12/17 00:02:56;;;;;;;3.63;1.02;;;17.70;51.60;;;;;;5073399;28;20161;-80
2020/12/17 00:05:25;;;;;;;2.88;1.25;;;17.70;51.50;;;;;;5107896;28;20175;-80
2020/12/17 00:07:52;;;;;;;1.67;1.10;;;17.70;51.70;;;;;;5108967;28;20184;-79
2020/12/17 00:10:18;;;;;;;3.45;1.13;;;17.70;51.50;;;;;;5108099;28;20168;-80
2020/12/17 00:12:46;;;;;;;1.85;1.10;;;17.70;51.40;;;;;;5090552;28;20161;-81
2020/12/17 00:15:16;;;;;;;2.33;1.20;;;17.60;51.40;;;;;;5090429;28;20183;-80
2020/12/17 00:17:48;;;;;;;2.28;1.10;;;17.70;51.30;;;;;;5107682;28;20184;-79
2020/12/17 00:20:23;;;;;;;1.88;1.13;;;17.70;51.40;;;;;;5073370;28;20161;-81
2020/12/17 00:22:50;;;;;;;1.88;0.90;;;17.60;51.60;;;;;;5107588;28;20167;-80
2020/12/17 00:25:18;;;;;;;2.78;1.23;;;17.60;51.60;;;;;;5107899;28;20149;-80
2020/12/17 00:27:52;;;;;;;4.35;1.27;;;17.70;51.50;;;;;;5106826;28;20149;-81
2020/12/17 00:30:19;;;;;;;1.50;1.00;;;17.70;51.60;;;;;;5089927;28;20163;-80
2020/12/17 00:32:46;;;;;;;1.70;1.05;;;17.60;51.60;;;;;;5107584;28;20177;-80
2020/12/17 00:35:12;;;;;;;3.03;1.20;;;17.60;51.70;;;;;;5108375;28;20156;-80
2020/12/17 00:37:38;;;;;;;2.03;1.10;;;17.60;51.70;;;;;;5107497;28;20236;-80
2020/12/17 00:40:19;;;;;;;2.08;1.40;;;17.60;51.60;;;;;;5072953;28;20157;-80
2020/12/17 00:42:46;;;;;;;2.40;1.25;;;17.60;51.60;;;;;;5089110;28;20669;-80
2020/12/17 00:45:15;;;;;;;2.25;1.05;;;17.60;51.70;;;;;;5089157;28;20192;-80
2020/12/17 00:47:42;;;;;;;2.10;1.20;;;17.60;51.60;;;;;;5107463;28;20179;-80
2020/12/17 00:50:09;;;;;;;2.90;1.10;;;17.60;51.80;;;;;;5073009;28;20249;-80
2020/12/17 00:52:41;;;;;;;2.45;1.08;;;17.60;51.80;;;;;;5089605;28;20152;-80
2020/12/17 00:55:14;;;;;;;1.70;0.88;;;17.60;51.80;;;;;;5106711;28;20156;-81
2020/12/17 00:57:40;;;;;;;2.05;1.20;;;17.60;51.90;;;;;;5106707;28;20184;-81
2020/12/17 01:00:07;;;;;;;4.22;1.25;;;17.60;51.90;;;;;;5088870;28;20164;-81
2020/12/17 01:02:34;;;;;;;2.38;1.10;;;17.50;51.90;;;;;;5106637;28;20624;-81
2020/12/17 01:05:01;;;;;;;1.63;0.98;;;17.60;51.90;;;;;;5107078;28;20157;-80
2020/12/17 01:07:27;;;;;;;2.33;1.05;;;17.50;51.80;;;;;;5106840;28;20157;-80
2020/12/17 01:09:54;;;;;;;1.52;1.27;;;17.50;52.00;;;;;;5106873;28;20157;-80
2020/12/17 01:12:20;;;;;;;1.52;1.05;;;17.50;52.10;;;;;;5106559;28;20168;-80
2020/12/17 01:14:47;;;;;;;2.25;1.20;;;17.50;52.00;;;;;;5089537;28;20169;-80
2020/12/17 01:17:14;;;;;;;1.70;1.35;;;17.50;51.90;;;;;;5105817;28;20208;-81
2020/12/17 01:19:40;;;;;;;3.03;1.40;;;17.50;52.00;;;;;;5088182;28;20182;-80
2020/12/17 01:22:07;;;;;;;3.33;1.70;;;17.50;51.90;;;;;;5088477;28;20256;-80
2020/12/17 01:24:33;;;;;;;1.58;0.98;;;17.50;51.90;;;;;;5088474;28;20149;-80
2020/12/17 01:27:08;;;;;;;4.82;1.10;;;17.50;51.90;;;;;;5106155;28;20192;-80
2020/12/17 01:29:35;;;;;;;2.28;1.20;;;17.50;51.80;;;;;;5106170;28;20212;-81
2020/12/17 01:32:01;;;;;;;2.33;1.10;;;17.50;51.80;;;;;;5106031;28;20157;-80
2020/12/17 01:34:28;;;;;;;1.83;0.98;;;17.50;51.90;;;;;;5087642;28;20206;-80
2020/12/17 01:36:54;;;;;;;2.60;1.08;;;17.50;51.80;;;;;;5087759;28;20196;-80
2020/12/17 01:39:21;;;;;;;1.48;1.17;;;17.60;51.80;;;;;;5070789;28;20164;-80
2020/12/17 01:41:47;;;;;;;2.90;1.10;;;17.60;51.90;;;;;;5088317;28;20157;-80
2020/12/17 01:44:14;;;;;;;2.53;1.25;;;17.50;51.90;;;;;;5106016;28;20181;-80
2020/12/17 01:46:40;;;;;;;2.08;1.10;;;17.60;51.90;;;;;;5105208;28;20164;-80
2020/12/17 01:49:08;;;;;;;1.63;1.10;;;17.60;52.00;;;;;;5087145;28;20198;-80
2020/12/17 01:51:35;;;;;;;2.65;0.90;;;17.60;51.90;;;;;;5087275;28;20176;-80
2020/12/17 01:54:02;;;;;;;1.83;0.90;;;17.60;51.90;;;;;;5100055;28;20188;-80
2020/12/17 01:56:36;;;;;;;1.15;1.05;;;17.50;52.00;;;;;;5099399;28;20230;-80
2020/12/17 01:59:11;;;;;;;2.53;1.20;;;17.60;51.90;;;;;;5064326;28;20203;-80
2020/12/17 02:01:40;;;;;;;1.92;1.10;;;17.50;51.90;;;;;;5081611;28;20192;-80
2020/12/17 02:04:06;;;;;;;2.83;1.02;;;17.50;52.00;;;;;;5081848;28;20145;-80
2020/12/17 02:06:35;;;;;;;1.70;1.15;;;17.60;52.00;;;;;;5064543;28;20172;-80
2020/12/17 02:09:01;;;;;;;1.38;1.10;;;17.50;52.00;;;;;;5081502;28;20190;-80
2020/12/17 02:11:27;;;;;;;1.30;1.10;;;17.50;51.90;;;;;;5099375;28;20636;-80
2020/12/17 02:13:53;;;;;;;1.92;1.10;;;17.50;51.90;;;;;;5064656;28;20547;-80
2020/12/17 02:16:20;;;;;;;2.45;1.05;;;17.50;51.90;;;;;;5099674;28;20172;-80
2020/12/17 02:18:52;;;;;;;1.25;0.98;;;17.50;51.90;;;;;;5098984;28;20180;-80
2020/12/17 02:21:21;;;;;;;1.58;1.10;;;17.50;51.90;;;;;;5080921;28;20626;-80
2020/12/17 02:23:48;;;;;;;1.73;1.10;;;17.50;51.90;;;;;;5081401;28;20179;-80
2020/12/17 02:26:14;;;;;;;2.15;1.23;;;17.60;51.90;;;;;;5081822;28;20164;-80
2020/12/17 02:28:41;;;;;;;3.05;1.13;;;17.50;52.00;;;;;;5099459;28;20161;-80
2020/12/17 02:31:08;;;;;;;1.33;1.10;;;17.50;52.20;;;;;;5099763;28;20177;-80
2020/12/17 02:33:35;;;;;;;1.52;1.17;;;17.50;52.30;;;;;;5080757;28;20164;-80
2020/12/17 02:36:02;;;;;;;1.77;1.30;;;17.50;52.00;;;;;;5098962;28;20157;-80
2020/12/17 02:38:28;;;;;;;1.30;0.90;;;17.50;52.00;;;;;;5099117;28;20285;-80
2020/12/17 02:40:55;;;;;;;1.23;1.00;;;17.50;52.10;;;;;;5099833;28;20227;-80
2020/12/17 02:43:21;;;;;;;3.03;0.90;;;17.50;52.10;;;;;;5099479;28;20206;-80
2020/12/17 02:45:49;;;;;;;2.88;1.23;;;17.50;52.10;;;;;;5098979;28;20191;-80
2020/12/17 02:48:24;;;;;;;2.17;1.00;;;17.50;52.10;;;;;;5080675;28;20172;-80
2020/12/17 02:50:51;;;;;;;1.48;1.10;;;17.50;52.20;;;;;;5101359;28;20160;-80
2020/12/17 02:53:17;;;;;;;1.85;1.05;;;17.50;52.20;;;;;;5103274;28;20619;-80
2020/12/17 02:55:44;;;;;;;1.63;1.00;;;17.50;52.20;;;;;;5086287;28;20182;-80
2020/12/17 02:58:11;;;;;;;2.47;1.15;;;17.50;52.30;;;;;;5088870;28;20184;-79
2020/12/17 03:00:39;;;;;;;1.05;0.95;;;17.50;52.30;;;;;;5073153;28;20240;-80
2020/12/17 03:03:05;;;;;;;2.50;1.20;;;17.40;52.20;;;;;;5108407;28;20165;-79
2020/12/17 03:05:32;;;;;;;1.20;1.10;;;17.40;52.20;;;;;;5107219;28;20149;-80
2020/12/17 03:07:59;;;;;;;4.28;1.10;;;17.50;52.20;;;;;;5107939;28;20161;-80
2020/12/17 03:10:25;;;;;;;1.33;1.08;;;17.50;52.30;;;;;;5108259;28;20165;-80
2020/12/17 03:12:52;;;;;;;1.00;0.80;;;17.40;52.30;;;;;;5090237;28;20156;-80
2020/12/17 03:15:18;;;;;;;1.02;0.93;;;17.40;52.50;;;;;;5090466;28;20164;-80
2020/12/17 03:17:45;;;;;;;3.33;1.20;;;17.40;52.30;;;;;;5108518;28;20188;-80
2020/12/17 03:20:12;;;;;;;2.47;0.98;;;17.40;52.30;;;;;;5107662;28;20164;-81
2020/12/17 03:22:39;;;;;;;1.88;1.10;;;17.40;52.40;;;;;;5090238;28;20216;-80
2020/12/17 03:25:07;;;;;;;1.77;1.05;;;17.40;52.40;;;;;;5108071;28;20708;-80
2020/12/17 03:27:33;;;;;;;2.47;1.10;;;17.40;52.40;;;;;;5090054;28;20172;-81
2020/12/17 03:30:09;;;;;;;1.38;1.10;;;17.40;52.30;;;;;;5089223;28;20169;-80
2020/12/17 03:32:36;;;;;;;1.17;0.90;;;17.40;52.30;;;;;;5108382;28;20184;-80
2020/12/17 03:35:02;;;;;;;3.72;1.27;;;17.40;52.50;;;;;;5108917;28;20156;-80
2020/12/17 03:37:28;;;;;;;4.45;1.05;;;17.40;52.60;;;;;;5108078;28;20220;-80
2020/12/17 03:39:56;;;;;;;2.83;1.17;;;17.40;52.60;;;;;;5108614;28;20192;-81
2020/12/17 03:42:23;;;;;;;1.83;1.10;;;17.40;52.50;;;;;;5090111;28;20176;-80
2020/12/17 03:44:52;;;;;;;1.80;0.90;;;17.40;52.50;;;;;;5108111;28;20161;-80
2020/12/17 03:47:27;;;;;;;2.25;1.30;;;17.40;52.60;;;;;;5107329;28;20160;-80
2020/12/17 03:49:53;;;;;;;3.03;1.15;;;17.30;52.50;;;;;;5108053;28;20164;-80
2020/12/17 03:52:20;;;;;;;2.40;1.35;;;17.40;52.60;;;;;;5107465;28;20642;-80
2020/12/17 03:54:46;;;;;;;1.80;1.17;;;17.40;52.50;;;;;;5107680;28;20165;-80
2020/12/17 03:57:14;;;;;;;2.38;1.30;;;17.40;52.60;;;;;;5108305;28;20234;-80
2020/12/17 03:59:41;;;;;;;1.45;0.90;;;17.30;52.50;;;;;;5107235;28;20170;-80
2020/12/17 04:02:15;;;;;;;1.58;1.13;;;17.40;52.60;;;;;;5089781;28;20153;-80
2020/12/17 04:04:41;;;;;;;1.60;1.00;;;17.40;52.60;;;;;;5107577;28;20173;-80
2020/12/17 04:07:08;;;;;;;2.35;1.17;;;17.40;52.60;;;;;;5107978;28;20168;-80
2020/12/17 04:09:36;;;;;;;1.85;1.10;;;17.40;52.80;;;;;;5107388;28;20630;-80
2020/12/17 04:12:10;;;;;;;2.10;0.90;;;17.30;52.60;;;;;;5107584;28;20172;-80
2020/12/17 04:14:39;;;;;;;1.95;1.02;;;17.30;52.70;;;;;;5107483;28;20160;-80
2020/12/17 04:17:05;;;;;;;1.65;1.00;;;17.40;52.70;;;;;;5107059;28;20194;-80
2020/12/17 04:19:31;;;;;;;2.03;1.27;;;17.30;52.70;;;;;;5088986;28;20164;-80
2020/12/17 04:21:57;;;;;;;2.10;1.10;;;17.30;52.60;;;;;;5088954;28;20155;-80
2020/12/17 04:24:22;;;;;;;1.65;1.20;;;17.30;52.80;;;;;;5107160;28;20181;-80
2020/12/17 04:26:52;;;;;;;1.48;1.00;;;17.30;52.70;;;;;;5089036;28;20194;-80
2020/12/17 04:29:18;;;;;;;1.00;0.88;;;17.30;52.70;;;;;;5089139;28;20157;-80
2020/12/17 04:31:43;;;;;;;1.15;0.93;;;17.30;52.90;;;;;;5088810;28;20184;-81
2020/12/17 04:34:11;;;;;;;1.30;1.05;;;17.30;52.80;;;;;;5088572;28;20165;-80
2020/12/17 04:36:38;;;;;;;1.30;1.00;;;17.30;52.70;;;;;;5106967;28;20195;-80
2020/12/17 04:39:05;;;;;;;1.33;1.00;;;17.30;52.70;;;;;;5084661;28;20220;-80
2020/12/17 04:41:31;;;;;;;1.75;0.90;;;17.40;52.90;;;;;;5086746;28;20200;-80
2020/12/17 04:43:57;;;;;;;2.35;1.10;;;17.30;52.80;;;;;;5084645;28;20165;-80
2020/12/17 04:46:24;;;;;;;1.40;0.88;;;17.30;52.70;;;;;;5085113;28;20172;-80
2020/12/17 04:48:52;;;;;;;1.27;1.08;;;17.40;52.80;;;;;;5069384;28;20237;-80
2020/12/17 04:51:19;;;;;;;1.15;0.80;;;17.30;52.80;;;;;;5070368;28;20252;-80
2020/12/17 04:53:46;;;;;;;2.55;1.20;;;17.30;52.80;;;;;;5087176;28;20153;-79
2020/12/17 04:56:15;;;;;;;1.63;1.00;;;17.30;52.70;;;;;;5087033;28;20149;-81
2020/12/17 04:59:02;;;;;;;2.03;1.10;;;17.40;52.60;;;;;;5086588;28;20154;-80
2020/12/17 05:01:31;;;;;;;1.90;1.17;;;17.50;52.20;;;;;;5082865;28;20192;-80
2020/12/17 05:04:00;;;;;;;1.65;1.25;;;17.50;52.00;;;;;;5053535;28;20173;-80
2020/12/17 05:06:26;;;;;;;1.73;1.00;;;17.50;52.00;;;;;;5086076;28;20658;-81
2020/12/17 05:08:52;;;;;;;1.08;0.98;;;17.50;52.00;;;;;;5085969;28;20181;-80
2020/12/17 05:11:19;;;;;;;1.77;1.20;;;17.50;52.20;;;;;;5069447;28;20165;-81
2020/12/17 05:13:45;;;;;;;2.75;1.20;;;17.40;52.20;;;;;;5087488;28;20158;-80
2020/12/17 05:16:10;;;;;;;2.90;0.90;;;17.40;52.30;;;;;;5086729;28;20154;-80
2020/12/17 05:18:37;;;;;;;1.48;1.10;;;17.40;52.30;;;;;;5085968;28;20149;-80
2020/12/17 05:21:05;;;;;;;1.40;1.00;;;17.40;52.30;;;;;;5085932;28;20228;-80
2020/12/17 05:23:31;;;;;;;2.85;1.20;;;17.40;52.30;;;;;;5086684;28;20608;-80
2020/12/17 05:25:57;;;;;;;2.05;1.00;;;17.40;52.40;;;;;;5086684;28;20158;-79
2020/12/17 05:28:23;;;;;;;1.23;1.00;;;17.40;52.10;;;;;;5086586;28;20177;-79
2020/12/17 05:30:48;;;;;;;1.95;1.13;;;17.50;51.80;;;;;;5085936;28;20161;-80
2020/12/17 05:33:14;;;;;;;1.50;1.08;;;17.50;51.90;;;;;;5069067;28;20165;-80
2020/12/17 05:35:41;;;;;;;2.42;1.10;;;17.50;51.90;;;;;;5069488;28;20185;-80
2020/12/17 05:38:09;;;;;;;2.28;1.00;;;17.50;51.80;;;;;;5097373;28;20240;-79
2020/12/17 05:40:42;;;;;;;1.85;1.15;;;17.50;52.00;;;;;;5106775;28;20156;-80
2020/12/17 05:43:10;;;;;;;1.52;1.13;;;17.50;52.20;;;;;;5088610;28;20175;-79
2020/12/17 05:45:41;;;;;;;1.20;1.08;;;17.50;52.00;;;;;;5072198;28;20599;-79
2020/12/17 05:48:10;;;;;;;1.58;1.05;;;17.50;52.00;;;;;;5106890;28;20164;-80
2020/12/17 05:51:01;;;;;;;1.30;1.10;;;17.40;52.10;;;;;;5105875;28;20184;-79
2020/12/17 05:53:31;;;;;;;1.75;1.00;;;17.40;52.10;;;;;;5106546;28;20173;-80
2020/12/17 05:56:07;;;;;;;1.52;1.10;;;17.50;51.80;;;;;;5106797;28;20165;-80
2020/12/17 05:58:40;;;;;;;1.60;1.25;;;17.50;52.10;;;;;;5088500;28;20180;-80
2020/12/17 06:01:13;;;;;;;1.30;1.00;;;17.50;51.90;;;;;;5088510;28;20160;-80
2020/12/17 06:03:58;;;;;;;1.92;1.20;;;17.50;52.00;;;;;;5089627;28;20240;-79
2020/12/17 06:06:30;;;;;;;3.15;1.27;;;17.50;52.10;;;;;;5105297;28;20161;-80
2020/12/17 06:08:56;;;;;;;2.65;1.30;;;17.50;51.80;;;;;;5088021;28;20157;-80
2020/12/17 06:11:23;;;;;;;1.20;1.00;;;17.50;51.70;;;;;;5088702;28;20153;-80
2020/12/17 06:13:54;;;;;;;1.70;1.00;;;17.60;51.60;;;;;;5088093;28;20183;-80
2020/12/17 06:16:23;;;;;;;1.75;1.33;;;17.60;51.60;;;;;;5088339;28;20149;-80
2020/12/17 06:18:58;;;;;;;2.10;1.00;;;17.50;51.90;;;;;;5070677;28;20240;-79
2020/12/17 06:21:27;;;;;;;1.38;1.20;;;17.50;51.80;;;;;;5088397;28;20156;-80
2020/12/17 06:23:59;;;;;;;2.05;1.27;;;17.50;51.90;;;;;;5054455;28;20162;-79
2020/12/17 06:26:24;;;;;;;1.77;1.33;;;17.50;51.90;;;;;;5046525;28;20154;-80
2020/12/17 06:28:53;;;;;;;1.23;1.08;;;17.50;51.70;;;;;;5031161;28;20241;-79
2020/12/17 06:31:25;;;;;;;2.45;1.42;;;17.50;51.80;;;;;;5062761;28;20162;-79
2020/12/17 06:34:03;;;;;;;2.08;1.25;;;17.40;51.90;;;;;;5045541;28;20193;-79
2020/12/17 06:36:34;;;;;;;1.38;1.13;;;17.50;51.70;;;;;;5048520;28;20207;-79
2020/12/17 06:39:04;;;;;;;3.95;1.30;;;17.60;51.60;;;;;;5047468;28;20235;-81
2020/12/17 06:41:30;;;;;;;1.40;1.20;;;17.50;51.60;;;;;;5030702;28;20185;-79
2020/12/17 06:43:55;;;;;;;1.92;1.35;;;17.60;51.70;;;;;;5047597;28;20150;-79
2020/12/17 06:46:36;;;;;;;1.27;0.93;;;17.50;51.80;;;;;;5046190;28;20241;-80
2020/12/17 06:49:24;;;;;;;2.05;1.40;;;17.50;51.70;;;;;;5047122;28;20177;-80
2020/12/17 06:52:06;;;;;;;1.52;1.20;;;17.50;51.60;;;;;;5062624;28;20628;-80
2020/12/17 06:54:31;;;;;;;3.00;1.45;;;17.50;51.90;;;;;;5065349;28;20153;-80
2020/12/17 06:57:17;;;;;;;1.67;1.33;;;17.50;51.90;;;;;;5065524;28;20182;-80
2020/12/17 07:00:04;;;;;;;2.63;1.25;;;17.50;51.80;;;;;;5047076;28;20583;-80
2020/12/17 07:02:48;;;;;;;4.05;1.20;;;17.50;52.00;;;;;;5047982;28;20162;-80
2020/12/17 07:05:46;;;;;;;1.77;1.42;;;17.50;51.90;;;;;;5063216;28;20237;-79
2020/12/17 07:08:13;;;;;;;2.00;1.35;;;17.50;52.20;;;;;;5061522;28;20246;-80
2020/12/17 07:10:39;;;;;;;1.58;1.42;;;17.40;52.20;;;;;;5044588;28;20188;-80
2020/12/17 07:13:04;;;;;;;1.95;1.25;;;17.40;52.20;;;;;;5062192;28;20162;-79
2020/12/17 07:15:35;;;;;;;1.40;1.10;;;17.50;51.80;;;;;;5063497;28;20223;-80
2020/12/17 07:18:29;;;;;;;1.58;1.10;;;17.60;51.50;;;;;;5045883;28;20258;-80
2020/12/17 07:21:27;;;;;;;1.40;1.13;;;17.50;51.60;;;;;;5065225;28;20162;-79
2020/12/17 07:23:53;;;;;;;1.65;1.20;;;17.60;51.60;;;;;;5046285;28;20202;-80
2020/12/17 07:26:18;;;;;;;1.92;1.25;;;17.60;51.50;;;;;;5064539;28;20648;-80
2020/12/17 07:28:54;;;;;;;1.60;1.23;;;17.60;51.60;;;;;;5063774;28;20182;-80
2020/12/17 07:31:30;;;;;;;1.60;1.25;;;17.60;51.60;;;;;;5065425;28;20161;-80
2020/12/17 07:33:56;;;;;;;1.67;1.33;;;17.60;51.60;;;;;;5045223;28;20165;-79
2020/12/17 07:36:42;;;;;;;2.47;1.20;;;17.60;51.50;;;;;;5064354;28;20170;-80
2020/12/17 07:39:07;;;;;;;3.42;1.45;;;17.60;51.50;;;;;;5051636;28;20685;-80
2020/12/17 07:41:34;;;;;;;1.75;1.30;;;17.60;51.50;;;;;;5053557;28;20163;-80
2020/12/17 07:44:00;;;;;;;2.08;1.25;;;17.60;51.50;;;;;;5045979;28;20166;-80
2020/12/17 07:46:39;;;;;;;1.80;1.27;;;17.60;51.60;;;;;;5059824;28;20162;-80
2020/12/17 07:49:24;;;;;;;4.13;1.23;;;17.60;51.20;;;;;;5048821;28;20158;-80
2020/12/17 07:51:51;;;;;;;1.77;1.17;;;17.70;51.20;;;;;;5061868;28;20613;-80
2020/12/17 07:54:20;;;;;;;1.92;1.30;;;17.60;51.30;;;;;;5067026;28;20165;-80
2020/12/17 07:56:47;;;;;;;2.20;1.63;;;17.60;51.40;;;;;;5048414;28;20669;-80
2020/12/17 07:59:15;;;;;;;1.70;1.20;;;17.60;51.50;;;;;;5048456;28;20821;-80
2020/12/17 08:01:41;;;;;;;1.90;1.20;;;17.70;51.20;;;;;;5048008;28;20162;-80
2020/12/17 08:04:09;;;;;;;1.50;1.35;;;17.70;51.20;;;;;;5046266;28;20577;-80
2020/12/17 08:06:36;;;;;;;2.92;1.48;;;17.60;51.40;;;;;;5044298;28;20231;-79
2020/12/17 08:09:04;;;;;;;3.15;1.50;;;17.60;51.50;;;;;;5045712;28;20228;-80
2020/12/17 08:11:31;;;;;;;1.85;1.33;;;17.60;51.30;;;;;;5042366;28;20213;-78
2020/12/17 08:14:05;;;;;;;1.30;1.10;;;17.60;51.60;;;;;;5043361;28;20155;-78
2020/12/17 08:16:32;;;;;;;1.35;1.20;;;17.60;51.50;;;;;;5042097;28;20178;-80
2020/12/17 08:18:59;;;;;;;1.90;1.40;;;17.70;51.20;;;;;;5043351;28;20208;-79
2020/12/17 08:21:26;;;;;;;1.75;1.20;;;17.70;51.30;;;;;;5044754;28;20159;-80
2020/12/17 08:23:52;;;;;;;1.98;1.58;;;17.60;51.40;;;;;;5041402;28;20233;-79
2020/12/17 08:26:24;;;;;;;1.77;1.52;;;17.60;51.40;;;;;;5039232;28;20209;-80
2020/12/17 08:28:56;;;;;;;2.20;1.42;;;17.80;50.70;;;;;;5043884;28;20174;-80
2020/12/17 08:31:27;;;;;;;1.90;1.40;;;17.90;50.60;;;;;;5061877;28;20621;-80
2020/12/17 08:34:00;;;;;;;2.55;1.52;;;17.80;50.90;;;;;;5056200;28;20167;-78
2020/12/17 08:36:34;;;;;;;2.38;1.50;;;17.80;51.10;;;;;;5042362;28;20162;-78
2020/12/17 08:39:14;;;;;;;2.42;1.50;;;17.80;51.00;;;;;;5060846;28;20244;-78
2020/12/17 08:41:49;;;;;;;2.58;1.88;;;17.80;50.80;;;;;;5046213;28;20181;-79
2020/12/17 08:44:28;;;;;;;1.63;1.40;;;17.80;50.80;;;;;;5046311;28;20177;-80
2020/12/17 08:47:04;;;;;;;2.42;1.63;;;17.80;51.00;;;;;;5063163;28;20301;-80
2020/12/17 08:49:30;;;;;;;2.38;1.40;;;17.70;51.10;;;;;;5071200;28;20169;-80
2020/12/17 08:52:08;;;;;;;2.58;1.60;;;17.80;50.60;;;;;;5062695;28;20560;-78
2020/12/17 08:54:37;;;;;;;1.92;1.58;;;17.80;51.10;;;;;;5062208;28;20245;-77
2020/12/17 08:57:03;;;;;;;2.17;1.40;;;17.80;50.80;;;;;;5062488;28;20182;-80
2020/12/17 08:59:30;;;;;;;1.60;1.38;;;17.80;51.00;;;;;;5065282;28;20169;-79
2020/12/17 09:02:20;;;;;;;1.63;1.23;;;17.80;50.90;;;;;;5063502;28;20173;-79
2020/12/17 09:04:56;;;;;;;2.35;1.60;;;17.80;50.70;;;;;;5079868;28;20177;-80
2020/12/17 09:07:26;;;;;;;3.47;1.90;;;17.90;50.50;;;;;;5079151;28;20188;-79
2020/12/17 09:09:53;;;;;;;2.35;1.70;;;17.90;50.50;;;;;;5065558;28;20191;-80
2020/12/17 09:12:29;;;;;;;2.00;1.70;;;17.90;50.40;;;;;;5081240;28;20170;-79
2020/12/17 09:15:24;;;;;;;2.45;1.55;;;17.90;50.50;;;;;;5065203;28;20248;-79
2020/12/17 09:17:50;;;;;;;3.17;1.60;;;17.90;50.70;;;;;;5064379;28;20205;-79
2020/12/17 09:20:28;;;;;;;1.95;1.60;;;17.90;50.60;;;;;;5082120;28;20173;-79
2020/12/17 09:23:04;;;;;;;2.35;1.95;;;17.90;50.40;;;;;;5066191;28;20153;-80
2020/12/17 09:25:32;;;;;;;3.05;1.45;;;17.90;50.50;;;;;;5066850;28;20157;-80
2020/12/17 09:27:58;;;;;;;11.25;1.92;;;17.90;50.70;;;;;;5064548;28;20547;-81
2020/12/17 09:30:33;;;;;;;1.85;1.52;;;17.90;50.50;;;;;;5064599;28;20176;-80
2020/12/17 09:33:01;;;;;;;3.03;1.55;;;17.90;50.50;;;;;;5048108;28;20157;-79
2020/12/17 09:35:31;;;;;;;1.65;1.30;;;18.00;50.50;;;;;;5082545;28;20251;-80
2020/12/17 09:38:07;;;;;;;2.58;1.48;;;17.90;50.70;;;;;;5082358;28;20279;-80
2020/12/17 09:40:34;;;;;;;2.25;1.50;;;18.00;50.50;;;;;;5046388;28;20566;-80
2020/12/17 09:43:09;;;;;;;2.22;1.67;;;17.90;50.70;;;;;;5045217;28;20150;-80
2020/12/17 09:45:36;;;;;;;2.90;1.80;;;17.90;50.80;;;;;;5046265;28;20647;-81
2020/12/17 09:48:20;;;;;;;1.75;1.23;;;17.90;50.50;;;;;;5043845;28;20184;-80
2020/12/17 09:50:53;;;;;;;3.22;1.70;;;18.00;50.30;;;;;;5063563;28;20154;-80
2020/12/17 09:53:20;;;;;;;2.20;1.58;;;18.00;50.60;;;;;;5064443;28;20162;-80
2020/12/17 09:55:47;;;;;;;2.13;1.60;;;17.90;50.40;;;;;;5065177;28;20154;-80
2020/12/17 09:58:14;;;;;;;1.98;1.58;;;18.00;50.20;;;;;;5063537;28;20189;-80
2020/12/17 10:00:48;;;;;;;2.08;1.67;;;18.10;50.40;;;;;;5062476;28;20499;-80
2020/12/17 10:03:15;;;;;;;2.92;2.03;;;18.00;50.30;;;;;;5063693;28;20154;-80
2020/12/17 10:05:43;;;;;;;2.90;2.13;;;18.10;50.00;;;;;;5064636;28;20166;-80
2020/12/17 10:08:09;;;;;;;2.95;1.98;;;18.10;50.30;;;;;;5063451;28;20231;-81
2020/12/17 10:10:44;;;;;;;3.40;1.80;;;18.10;50.30;;;;;;5064191;28;20159;-80
2020/12/17 10:13:12;;;;;;;7.00;2.08;;;18.00;50.50;;;;;;5064000;28;20177;-80
2020/12/17 10:15:40;;;;;;;3.95;1.77;;;18.00;50.80;;;;;;5064084;28;20166;-80
2020/12/17 10:18:07;;;;;;;4.43;2.00;;;17.90;50.90;;;;;;5064099;28;20272;-78
2020/12/17 10:20:33;;;;;;;5.03;2.03;;;17.90;50.80;;;;;;5063617;28;20146;-80
2020/12/17 10:23:00;;;;;;;3.25;1.73;;;18.00;50.60;;;;;;5063780;28;20221;-80
2020/12/17 10:25:27;;;;;;;5.70;1.75;;;18.00;50.60;;;;;;5063806;28;20519;-80
2020/12/17 10:27:55;;;;;;;6.20;1.65;;;18.00;50.70;;;;;;5063576;28;20186;-81
2020/12/17 10:30:30;;;;;;;2.72;1.58;;;18.00;50.80;;;;;;5064677;28;20150;-80
2020/12/17 10:32:57;;;;;;;2.85;2.00;;;17.90;51.50;;;;;;5063731;28;20676;-80
2020/12/17 10:35:32;;;;;;;2.08;1.70;;;18.00;50.70;;;;;;5064072;28;20627;-80
2020/12/17 10:37:57;;;;;;;2.70;1.58;;;17.90;50.50;;;;;;5073569;28;20224;-80
2020/12/17 10:40:23;;;;;;;2.25;1.80;;;18.00;50.70;;;;;;5084889;28;20168;-80
2020/12/17 10:42:58;;;;;;;3.22;1.77;;;18.00;50.40;;;;;;5084566;28;20166;-80
2020/12/17 10:45:25;;;;;;;2.65;1.90;;;18.00;50.40;;;;;;5084086;28;20164;-80
2020/12/17 10:47:51;;;;;;;3.88;1.50;;;18.10;50.50;;;;;;5084420;28;20231;-79
2020/12/17 10:50:18;;;;;;;3.15;1.70;;;18.10;50.40;;;;;;5083770;28;20154;-80
2020/12/17 10:52:46;;;;;;;3.60;1.67;;;18.00;50.40;;;;;;5085446;28;20169;-80
2020/12/17 10:55:20;;;;;;;2.90;1.80;;;18.00;50.80;;;;;;5084438;28;20193;-79
2020/12/17 10:57:47;;;;;;;2.20;2.00;;;18.00;50.50;;;;;;5083422;28;20519;-80
2020/12/17 11:00:14;;;;;;;3.00;1.80;;;18.10;50.40;;;;;;5083398;28;20154;-80
2020/12/17 11:02:40;;;;;;;2.90;1.60;;;18.10;50.20;;;;;;5083924;28;20172;-80
2020/12/17 11:05:07;;;;;;;3.50;1.50;;;18.00;50.50;;;;;;5083779;28;20234;-80
2020/12/17 11:07:35;;;;;;;2.20;1.88;;;18.00;50.60;;;;;;5083435;28;20248;-80
2020/12/17 11:10:02;;;;;;;3.53;1.70;;;18.00;50.40;;;;;;5081730;28;20184;-80
2020/12/17 11:12:29;;;;;;;4.20;1.60;;;18.00;50.70;;;;;;5084786;28;20158;-80
2020/12/17 11:14:55;;;;;;;2.38;1.92;;;17.90;50.90;;;;;;5086897;28;20154;-80
2020/12/17 11:17:21;;;;;;;1.88;1.45;;;17.90;50.50;;;;;;5085516;28;20209;-79
2020/12/17 11:19:48;;;;;;;4.97;1.83;;;18.10;50.30;;;;;;5084583;28;20161;-79
2020/12/17 11:22:14;;;;;;;4.05;2.00;;;18.10;50.20;;;;;;5086073;28;20630;-80
2020/12/17 11:24:43;;;;;;;4.75;1.83;;;18.20;50.00;;;;;;5067854;28;20236;-80
2020/12/17 11:27:10;;;;;;;2.10;1.90;;;18.20;50.10;;;;;;5068907;28;20211;-80
2020/12/17 11:29:35;;;;;;;2.53;1.52;;;18.20;50.20;;;;;;5068115;28;20169;-79
2020/12/17 11:32:01;;;;;;;2.67;1.63;;;18.10;50.20;;;;;;5051541;28;20711;-80
2020/12/17 11:34:28;;;;;;;2.45;1.65;;;18.00;50.40;;;;;;5071022;28;20157;-80
2020/12/17 11:36:53;;;;;;;2.30;1.60;;;18.10;50.20;;;;;;5073391;28;20269;-79
2020/12/17 11:39:22;;;;;;;2.45;1.80;;;18.10;50.30;;;;;;5080971;28;20181;-80
2020/12/17 11:41:48;;;;;;;3.20;1.70;;;18.10;50.30;;;;;;5088468;28;20253;-80
2020/12/17 11:44:16;;;;;;;4.15;1.88;;;18.10;50.00;;;;;;5089153;28;20230;-80
2020/12/17 11:46:44;;;;;;;2.92;1.55;;;18.10;50.00;;;;;;5071476;28;20240;-80
2020/12/17 11:49:11;;;;;;;2.90;2.00;;;18.10;50.20;;;;;;5087806;28;20157;-80
2020/12/17 11:51:38;;;;;;;3.03;1.80;;;18.10;50.10;;;;;;5088916;28;20158;-80
2020/12/17 11:54:05;;;;;;;4.05;1.58;;;18.10;50.30;;;;;;5070881;28;20169;-80
2020/12/17 11:56:40;;;;;;;2.47;1.63;;;18.10;50.30;;;;;;5086853;28;20157;-79
2020/12/17 11:59:15;;;;;;;4.22;1.80;;;18.00;50.40;;;;;;5088288;28;20248;-80
2020/12/17 12:01:42;;;;;;;4.47;1.90;;;18.00;50.70;;;;;;5069563;28;20768;-79
2020/12/17 12:04:17;;;;;;;3.20;2.10;;;18.00;50.40;;;;;;5088535;28;20184;-80
2020/12/17 12:06:47;;;;;;;4.32;1.63;;;18.00;50.30;;;;;;5087804;28;20157;-80
2020/12/17 12:09:18;;;;;;;4.18;1.80;;;18.10;50.10;;;;;;5087658;28;20157;-80
2020/12/17 12:11:46;;;;;;;6.15;1.95;;;18.00;50.40;;;;;;5085665;28;20221;-80
2020/12/17 12:14:12;;;;;;;4.88;1.95;;;18.00;50.50;;;;;;5069364;28;20248;-80
2020/12/17 12:16:38;;;;;;;6.25;1.88;;;18.00;50.10;;;;;;5069392;28;20152;-79
2020/12/17 12:19:05;;;;;;;3.38;1.73;;;18.10;51.00;;;;;;5069665;28;20162;-80
2020/12/17 12:21:34;;;;;;;6.35;2.08;;;18.10;50.00;;;;;;5069039;28;20162;-80
2020/12/17 12:24:01;;;;;;;7.70;1.95;;;18.10;50.40;;;;;;5085847;28;20169;-80
2020/12/17 12:26:26;;;;;;;5.55;2.05;;;18.10;50.20;;;;;;5068788;28;20161;-80
2020/12/17 12:28:52;;;;;;;5.50;1.73;;;18.10;50.30;;;;;;5069453;28;20146;-80
2020/12/17 12:31:19;;;;;;;3.70;2.10;;;18.10;50.40;;;;;;5069537;28;20153;-80
2020/12/17 12:33:44;;;;;;;5.20;1.83;;;18.10;50.00;;;;;;5069240;28;20150;-80
2020/12/17 12:36:12;;;;;;;5.22;1.60;;;18.10;50.30;;;;;;5068924;28;20189;-81
2020/12/17 12:38:41;;;;;;;4.50;1.80;;;18.00;50.40;;;;;;5065751;28;20235;-80
2020/12/17 12:41:07;;;;;;;5.18;2.10;;;18.00;50.70;;;;;;5069467;28;20150;-80
2020/12/17 12:43:33;;;;;;;2.92;1.92;;;18.00;50.20;;;;;;5069124;28;20160;-80
2020/12/17 12:45:59;;;;;;;3.15;1.88;;;18.00;50.40;;;;;;5087079;28;20569;-81
2020/12/17 12:48:25;;;;;;;4.22;1.77;;;18.10;50.20;;;;;;5068709;28;20161;-79
2020/12/17 12:50:52;;;;;;;3.75;1.83;;;18.10;50.30;;;;;;5086322;28;20161;-81
2020/12/17 12:53:21;;;;;;;4.40;1.92;;;18.00;50.30;;;;;;5086508;28;20231;-81
2020/12/17 12:56:07;;;;;;;3.20;2.10;;;18.00;50.60;;;;;;5068158;28;20252;-78
2020/12/17 12:58:42;;;;;;;4.90;1.90;;;18.00;50.00;;;;;;5086430;28;20276;-77